createdAt,value
2023-02-18T00:01:13.703Z,10.94
2023-02-18T00:03:42.035Z,11.06
2023-02-18T00:06:14.872Z,10.88
2023-02-18T00:08:43.542Z,11.03
2023-02-18T00:11:12.179Z,11.02
2023-02-18T00:13:41.276Z,10.99
2023-02-18T00:16:11.317Z,10.95
2023-02-18T00:18:39.446Z,10.79
2023-02-18T00:21:08.587Z,10.94
2023-02-18T00:23:36.390Z,10.79
2023-02-18T00:26:07.958Z,10.79
2023-02-18T00:28:36.264Z,10.70
2023-02-18T00:31:09.375Z,10.80
2023-02-18T00:33:37.395Z,10.83
2023-02-18T00:36:07.010Z,10.78
2023-02-18T00:38:34.896Z,10.79
2023-02-18T00:41:07.054Z,10.76
2023-02-18T00:43:39.260Z,10.77
2023-02-18T00:46:08.854Z,10.73
2023-02-18T00:48:51.379Z,10.71
2023-02-18T00:51:20.955Z,10.65
2023-02-18T00:53:54.631Z,10.71
2023-02-18T00:56:38.920Z,10.66
2023-02-18T00:59:10.230Z,10.71
2023-02-18T01:01:39.617Z,10.67
2023-02-18T01:04:09.895Z,10.65
2023-02-18T01:06:39.295Z,10.65
2023-02-18T01:09:10.787Z,10.40
2023-02-18T01:11:38.508Z,10.65
2023-02-18T01:14:10.106Z,10.63
2023-02-18T01:16:41.533Z,10.69
2023-02-18T01:19:11.866Z,10.65
2023-02-18T01:21:44.013Z,10.61
2023-02-18T01:24:13.939Z,10.69
2023-02-18T01:26:42.094Z,10.62
2023-02-18T01:29:09.718Z,10.61
2023-02-18T01:31:38.970Z,10.62
2023-02-18T01:34:06.740Z,10.62
2023-02-18T01:36:35.177Z,10.60
2023-02-18T01:39:03.438Z,10.56
2023-02-18T01:41:32.521Z,10.63
2023-02-18T01:44:15.567Z,10.59
2023-02-18T01:46:50.717Z,10.55
2023-02-18T01:49:23.285Z,10.58
2023-02-18T01:51:53.842Z,10.62
2023-02-18T01:54:25.796Z,10.56
2023-02-18T01:56:57.679Z,10.52
2023-02-18T01:59:28.523Z,10.58
2023-02-18T02:01:58.993Z,10.55
2023-02-18T02:04:27.514Z,10.63
2023-02-18T02:06:56.757Z,10.59
2023-02-18T02:09:26.566Z,10.65
2023-02-18T02:12:36.736Z,10.57
2023-02-18T02:15:20.719Z,10.57
2023-02-18T02:18:07.634Z,10.58
2023-02-18T02:20:54.886Z,10.62
2023-02-18T02:23:40.630Z,10.64
2023-02-18T02:26:26.086Z,10.68
2023-02-18T02:29:23.120Z,10.56
2023-02-18T02:32:10.705Z,10.55
2023-02-18T02:34:57.660Z,10.56
2023-02-18T02:37:30.644Z,10.46
2023-02-18T02:40:05.200Z,10.47
2023-02-18T02:42:41.870Z,10.55
2023-02-18T02:45:16.159Z,10.49
2023-02-18T02:47:47.199Z,10.50
2023-02-18T02:50:20.289Z,10.54
2023-02-18T02:52:51.593Z,10.51
2023-02-18T02:55:19.462Z,10.50
2023-02-18T02:57:52.117Z,10.46
2023-02-18T03:00:21.913Z,10.48
2023-02-18T03:03:10.557Z,10.49
2023-02-18T03:05:51.535Z,10.55
2023-02-18T03:08:31.528Z,10.43
2023-02-18T03:11:05.182Z,10.46
2023-02-18T03:13:43.571Z,10.48
2023-02-18T03:16:16.306Z,10.50
2023-02-18T03:18:47.073Z,10.46
2023-02-18T03:21:18.182Z,10.47
2023-02-18T03:23:47.814Z,10.37
2023-02-18T03:26:16.344Z,10.32
2023-02-18T03:28:45.052Z,10.39
2023-02-18T03:31:15.008Z,10.43
2023-02-18T03:33:46.122Z,10.46
2023-02-18T03:36:13.988Z,10.46
2023-02-18T03:38:45.502Z,10.44
2023-02-18T03:41:13.210Z,10.42
2023-02-18T03:43:41.585Z,10.49
2023-02-18T03:46:09.570Z,10.48
2023-02-18T03:48:37.549Z,10.56
2023-02-18T03:51:05.419Z,10.49
2023-02-18T03:53:32.987Z,10.48
2023-02-18T03:56:01.887Z,10.47
2023-02-18T03:58:29.578Z,10.42
2023-02-18T04:00:57.238Z,10.43
2023-02-18T04:03:24.874Z,10.48
2023-02-18T04:05:52.572Z,10.40
2023-02-18T04:08:20.166Z,10.37
2023-02-18T04:10:47.773Z,10.43
2023-02-18T04:13:17.563Z,10.37
2023-02-18T04:15:45.210Z,10.34
2023-02-18T04:18:13.443Z,10.28
2023-02-18T04:20:41.062Z,10.31
2023-02-18T04:23:08.766Z,10.25
2023-02-18T04:25:36.886Z,10.28
2023-02-18T04:28:04.779Z,10.16
2023-02-18T04:30:34.366Z,10.07
2023-02-18T04:33:02.037Z,10.08
2023-02-18T04:35:29.654Z,10.17
2023-02-18T04:37:57.389Z,10.12
2023-02-18T04:40:26.694Z,10.16
2023-02-18T04:42:54.376Z,10.11
2023-02-18T04:45:22.043Z,10.19
2023-02-18T04:47:51.007Z,10.14
2023-02-18T04:50:18.903Z,10.15
2023-02-18T04:52:46.543Z,10.14
2023-02-18T04:55:14.160Z,10.14
2023-02-18T04:57:41.746Z,10.14
2023-02-18T05:00:11.216Z,10.18
2023-02-18T05:02:38.795Z,10.25
2023-02-18T05:05:07.912Z,10.24
2023-02-18T05:07:35.531Z,10.14
2023-02-18T05:10:03.271Z,10.15
2023-02-18T05:12:30.921Z,10.12
2023-02-18T05:14:58.552Z,10.25
2023-02-18T05:17:26.341Z,10.30
2023-02-18T05:19:53.986Z,10.29
2023-02-18T05:22:22.973Z,10.21
2023-02-18T05:24:50.561Z,10.19
2023-02-18T05:27:18.194Z,10.16
2023-02-18T05:29:46.017Z,10.12
2023-02-18T05:32:13.672Z,10.27
2023-02-18T05:34:41.488Z,10.20
2023-02-18T05:37:09.785Z,10.21
2023-02-18T05:39:39.075Z,10.19
2023-02-18T05:42:06.925Z,10.19
2023-02-18T05:44:34.017Z,10.22
2023-02-18T05:47:03.950Z,10.08
2023-02-18T05:49:32.714Z,10.00
2023-02-18T05:52:00.852Z,10.25
2023-02-18T05:54:30.757Z,10.14
2023-02-18T06:02:14.773Z,10.06
2023-02-18T06:04:44.881Z,10.08
2023-02-18T06:07:14.341Z,10.11
2023-02-18T06:09:42.250Z,10.01
2023-02-18T06:12:09.953Z,9.98
2023-02-18T06:14:37.623Z,10.01
2023-02-18T06:17:05.271Z,9.94
2023-02-18T06:19:32.991Z,9.97
2023-02-18T06:22:00.763Z,9.93
2023-02-18T06:24:29.804Z,9.90
2023-02-18T06:26:57.600Z,9.91
2023-02-18T06:29:25.597Z,9.77
2023-02-18T06:31:53.432Z,9.70
2023-02-18T06:34:21.379Z,9.91
2023-02-18T06:36:49.140Z,9.82
2023-02-18T06:39:16.847Z,9.86
2023-02-18T06:41:45.996Z,9.72
2023-02-18T06:44:15.318Z,9.55
2023-02-18T06:46:42.991Z,9.70
2023-02-18T06:49:10.569Z,9.80
2023-02-18T06:51:38.480Z,9.82
2023-02-18T06:54:06.760Z,9.71
2023-02-18T06:56:41.675Z,9.79
2023-02-18T06:59:11.726Z,9.57
2023-02-18T07:01:39.428Z,9.51
2023-02-18T07:04:07.314Z,9.78
2023-02-18T07:06:36.784Z,9.83
2023-02-18T07:11:32.177Z,9.86
2023-02-18T07:13:59.934Z,9.52
2023-02-18T07:16:29.148Z,9.81
2023-02-18T07:18:56.920Z,9.86
2023-02-18T07:21:24.683Z,9.87
2023-02-18T07:23:52.298Z,9.78
2023-02-18T07:26:19.966Z,9.88
2023-02-18T07:28:47.811Z,9.62
2023-02-18T07:31:15.684Z,9.71
2023-02-18T07:33:45.017Z,9.80
2023-02-18T07:36:12.944Z,9.85
2023-02-18T07:38:42.051Z,9.96
2023-02-18T07:41:16.564Z,9.82
2023-02-18T07:43:44.248Z,9.88
2023-02-18T07:46:13.618Z,9.83
2023-02-18T07:48:41.279Z,9.90
2023-02-18T07:51:12.764Z,9.82
2023-02-18T07:53:41.331Z,9.86
2023-02-18T07:56:09.493Z,9.91
2023-02-18T07:58:39.647Z,9.91
2023-02-18T08:01:08.259Z,9.94
2023-02-18T08:03:35.974Z,9.97
2023-02-18T08:06:04.186Z,9.91
2023-02-18T08:08:38.400Z,9.97
2023-02-18T08:11:18.400Z,10.01
2023-02-18T08:13:47.279Z,9.99
2023-02-18T08:16:15.438Z,10.03
2023-02-18T08:18:43.502Z,10.13
2023-02-18T08:21:11.845Z,10.07
2023-02-18T08:23:41.137Z,10.04
2023-02-18T08:26:09.403Z,9.99
2023-02-18T08:28:39.140Z,10.09
2023-02-18T08:31:07.265Z,10.20
2023-02-18T08:33:35.389Z,10.17
2023-02-18T08:36:03.041Z,10.29
2023-02-18T08:38:30.835Z,10.27
2023-02-18T08:41:04.820Z,10.32
2023-02-18T08:43:32.489Z,10.39
2023-02-18T08:46:00.750Z,10.24
2023-02-18T08:48:30.238Z,10.34
2023-02-18T08:50:58.034Z,10.35
2023-02-18T08:53:25.659Z,10.31
2023-02-18T08:55:53.535Z,10.35
2023-02-18T08:58:22.659Z,10.23
2023-02-18T09:00:50.265Z,10.30
2023-02-18T09:03:18.041Z,10.27
2023-02-18T09:05:48.321Z,10.26
2023-02-18T09:08:15.992Z,10.33
2023-02-18T09:10:45.999Z,10.34
2023-02-18T09:13:13.925Z,10.42
2023-02-18T09:15:42.979Z,10.37
2023-02-18T09:18:10.651Z,10.41
2023-02-18T09:20:41.006Z,10.42
2023-02-18T09:23:08.683Z,10.42
2023-02-18T09:25:38.928Z,10.43
2023-02-18T09:28:06.505Z,10.52
2023-02-18T09:30:34.192Z,10.67
2023-02-18T09:33:03.279Z,10.72
2023-02-18T09:35:30.928Z,10.63
2023-02-18T09:37:59.011Z,10.76
2023-02-18T09:40:29.108Z,10.78
2023-02-18T09:43:00.107Z,10.45
2023-02-18T09:45:30.873Z,10.79
2023-02-18T09:47:58.555Z,10.89
2023-02-18T09:50:32.364Z,10.88
2023-02-18T09:53:00.900Z,10.98
2023-02-18T09:55:31.378Z,11.04
2023-02-18T09:58:02.678Z,11.09
2023-02-18T10:00:33.842Z,11.05
2023-02-18T10:03:05.764Z,11.12
2023-02-18T10:05:35.793Z,11.05
2023-02-18T10:08:06.599Z,10.97
2023-02-18T10:10:38.823Z,11.07
2023-02-18T10:13:12.013Z,11.07
2023-02-18T10:15:40.119Z,11.02
2023-02-18T10:18:20.259Z,10.93
2023-02-18T10:20:49.864Z,10.96
2023-02-18T10:23:18.333Z,10.95
2023-02-18T10:25:47.592Z,10.94
2023-02-18T10:28:17.369Z,10.99
2023-02-18T10:30:48.161Z,10.83
2023-02-18T10:33:28.719Z,10.85
2023-02-18T10:36:04.373Z,10.93
2023-02-18T10:38:36.304Z,10.79
2023-02-18T10:41:09.015Z,10.84
2023-02-18T10:43:41.394Z,10.74
2023-02-18T10:46:17.086Z,10.83
2023-02-18T10:49:03.977Z,10.79
2023-02-18T10:51:35.717Z,10.92
2023-02-18T10:54:03.364Z,10.87
2023-02-18T10:56:43.552Z,10.84
2023-02-18T10:59:13.861Z,10.89
2023-02-18T11:01:43.975Z,10.92
2023-02-18T11:04:16.790Z,10.99
2023-02-18T11:06:48.226Z,10.96
2023-02-18T11:09:31.955Z,10.88
2023-02-18T11:12:08.463Z,10.97
2023-02-18T11:14:43.041Z,11.00
2023-02-18T11:17:22.346Z,11.09
2023-02-18T11:19:55.427Z,11.02
2023-02-18T11:22:26.369Z,11.11
2023-02-18T11:24:56.436Z,11.08
2023-02-18T11:27:27.763Z,11.08
2023-02-18T11:30:01.388Z,11.11
2023-02-18T11:32:30.247Z,11.17
2023-02-18T11:34:57.977Z,11.26
2023-02-18T11:37:27.025Z,11.31
2023-02-18T11:39:56.479Z,11.24
2023-02-18T11:42:26.606Z,11.21
2023-02-18T11:44:56.480Z,11.22
2023-02-18T11:47:28.008Z,11.44
2023-02-18T11:50:18.753Z,11.33
2023-02-18T11:52:49.237Z,11.50
2023-02-18T11:55:19.800Z,11.49
2023-02-18T11:57:50.801Z,11.57
2023-02-18T12:00:23.935Z,11.58
2023-02-18T12:02:53.061Z,11.73
2023-02-18T12:05:23.980Z,11.77
2023-02-18T12:07:56.596Z,11.75
2023-02-18T12:10:28.521Z,11.80
2023-02-18T12:13:02.216Z,11.82
2023-02-18T12:15:38.033Z,11.81
2023-02-18T12:18:23.023Z,11.84
2023-02-18T12:21:06.697Z,11.69
2023-02-18T12:23:40.291Z,11.70
2023-02-18T12:26:19.693Z,11.69
2023-02-18T12:28:58.845Z,11.77
2023-02-18T12:31:43.460Z,11.67
2023-02-18T12:34:25.981Z,11.73
2023-02-18T12:37:02.610Z,11.77
2023-02-18T12:39:42.260Z,11.70
2023-02-18T12:42:31.611Z,11.69
2023-02-18T12:45:18.424Z,11.69
2023-02-18T12:48:14.479Z,11.63
2023-02-18T12:50:55.937Z,11.50
2023-02-18T12:53:43.369Z,11.56
2023-02-18T12:56:39.480Z,11.70
2023-02-18T12:59:13.052Z,11.66
2023-02-18T13:01:50.211Z,11.71
2023-02-18T13:04:25.857Z,11.67
2023-02-18T13:07:17.207Z,11.56
2023-02-18T13:09:57.394Z,11.61
2023-02-18T13:12:32.674Z,11.71
2023-02-18T13:15:02.872Z,11.93
2023-02-18T13:17:33.861Z,11.97
2023-02-18T13:20:04.785Z,12.23
2023-02-18T13:22:33.085Z,12.07
2023-02-18T13:25:03.515Z,11.92
2023-02-18T13:27:37.967Z,12.10
2023-02-18T13:30:20.197Z,12.06
2023-02-18T13:32:55.888Z,12.04
2023-02-18T13:35:26.892Z,12.09
2023-02-18T13:38:04.807Z,11.88
2023-02-18T13:40:33.344Z,12.00
2023-02-18T13:43:20.984Z,11.80
2023-02-18T13:46:10.653Z,11.63
2023-02-18T13:48:44.639Z,11.65
2023-02-18T13:51:13.694Z,11.60
2023-02-18T13:53:43.785Z,11.43
2023-02-18T13:56:12.617Z,11.54
2023-02-18T13:58:43.566Z,11.52
2023-02-18T14:01:21.728Z,11.33
2023-02-18T14:03:55.075Z,11.43
2023-02-18T14:06:24.903Z,11.39
2023-02-18T14:08:53.502Z,11.42
2023-02-18T14:11:42.374Z,11.52
2023-02-18T14:14:35.520Z,11.53
2023-02-18T14:17:37.310Z,11.50
2023-02-18T14:20:34.509Z,11.43
2023-02-18T14:23:02.074Z,11.33
2023-02-18T14:25:37.298Z,11.28
2023-02-18T14:31:51.802Z,11.24
2023-02-18T14:34:51.671Z,11.24
2023-02-18T14:37:33.480Z,11.30
2023-02-18T14:40:13.072Z,11.29
2023-02-18T14:42:45.749Z,11.16
2023-02-18T14:45:20.654Z,11.21
2023-02-18T14:48:15.730Z,11.29
2023-02-18T14:50:45.677Z,11.27
2023-02-18T14:53:18.437Z,11.30
2023-02-18T14:55:48.102Z,11.22
2023-02-18T14:58:25.200Z,11.19
2023-02-18T15:00:52.821Z,11.21
2023-02-18T15:03:22.809Z,11.21
2023-02-18T15:05:51.920Z,11.15
2023-02-18T15:08:21.145Z,11.10
2023-02-18T15:10:51.242Z,11.13
2023-02-18T15:13:21.178Z,11.02
2023-02-18T15:15:54.324Z,11.03
2023-02-18T15:18:31.940Z,11.05
2023-02-18T15:21:02.125Z,11.02
2023-02-18T15:23:30.424Z,11.03
2023-02-18T15:25:58.668Z,11.00
2023-02-18T15:28:28.838Z,11.08
2023-02-18T15:30:58.272Z,11.03
2023-02-18T15:33:28.708Z,10.89
2023-02-18T15:36:04.998Z,10.98
2023-02-18T15:38:33.205Z,10.90
2023-02-18T15:41:01.503Z,10.81
2023-02-18T15:43:29.983Z,10.86
2023-02-18T15:45:58.888Z,10.84
2023-02-18T15:48:33.367Z,10.91
2023-02-18T15:51:15.809Z,10.67
2023-02-18T15:53:46.625Z,10.69
2023-02-18T15:56:22.256Z,10.78
2023-02-18T15:58:49.833Z,10.65
2023-02-18T16:01:28.265Z,10.81
2023-02-18T16:03:57.381Z,10.79
2023-02-18T16:06:27.245Z,10.78
2023-02-18T16:09:00.054Z,10.64
2023-02-18T16:11:33.560Z,10.66
2023-02-18T16:14:01.262Z,10.58
2023-02-18T16:16:31.131Z,10.62
2023-02-18T16:19:00.133Z,10.61
2023-02-18T16:21:33.619Z,10.43
2023-02-18T16:24:02.662Z,10.44
2023-02-18T16:26:33.328Z,10.45
2023-02-18T16:29:14.434Z,10.33
2023-02-18T16:31:42.608Z,10.33
2023-02-18T16:34:11.730Z,10.26
2023-02-18T16:37:03.249Z,10.09
2023-02-18T16:39:34.639Z,10.20
2023-02-18T16:42:02.530Z,10.14
2023-02-18T16:44:30.232Z,10.07
2023-02-18T16:46:58.121Z,10.03
2023-02-18T16:49:27.123Z,10.00
2023-02-18T16:51:54.822Z,9.95
2023-02-18T16:54:22.458Z,9.85
2023-02-18T16:56:50.258Z,9.73
2023-02-18T16:59:17.948Z,9.74
2023-02-18T17:01:48.238Z,9.76
2023-02-18T17:04:17.387Z,9.74
2023-02-18T17:06:47.304Z,9.61
2023-02-18T17:09:16.984Z,9.78
2023-02-18T17:11:45.408Z,9.69
2023-02-18T17:14:14.804Z,9.67
2023-02-18T17:16:42.494Z,9.66
2023-02-18T17:19:12.956Z,9.63
2023-02-18T17:21:40.568Z,9.69
2023-02-18T17:24:12.483Z,9.58
2023-02-18T17:26:40.053Z,9.57
2023-02-18T17:29:09.603Z,9.61
2023-02-18T17:31:39.490Z,9.60
2023-02-18T17:34:09.672Z,9.55
2023-02-18T17:36:37.658Z,9.41
2023-02-18T17:39:10.568Z,9.36
2023-02-18T17:41:38.693Z,9.43
2023-02-18T17:44:12.354Z,9.45
2023-02-18T17:46:39.950Z,9.50
2023-02-18T17:49:07.583Z,9.42
2023-02-18T17:51:36.889Z,9.44
2023-02-18T17:54:04.562Z,9.38
2023-02-18T17:56:35.465Z,9.38
2023-02-18T17:59:03.102Z,9.45
2023-02-18T18:01:30.711Z,9.53
2023-02-18T18:03:58.293Z,9.24
2023-02-18T18:06:25.836Z,9.36
2023-02-18T18:08:53.406Z,9.53
2023-02-18T18:11:22.288Z,9.45
2023-02-18T18:13:52.806Z,9.54
2023-02-18T18:16:21.290Z,9.49
2023-02-18T18:18:49.219Z,9.39
2023-02-18T18:21:20.935Z,9.36
2023-02-18T18:23:48.832Z,9.27
2023-02-18T18:26:16.587Z,9.36
2023-02-18T18:28:45.951Z,9.47
2023-02-18T18:31:17.851Z,9.44
2023-02-18T18:33:48.730Z,9.57
2023-02-18T18:36:16.599Z,9.52
2023-02-18T18:38:44.254Z,9.63
2023-02-18T18:41:15.300Z,9.66
2023-02-18T18:43:42.967Z,9.64
2023-02-18T18:46:10.607Z,9.67
2023-02-18T18:48:39.686Z,9.59
2023-02-18T18:51:07.605Z,9.78
2023-02-18T18:53:36.239Z,9.75
2023-02-18T18:56:06.338Z,9.77
2023-02-18T18:58:34.269Z,9.58
2023-02-18T19:01:03.529Z,9.67
2023-02-18T19:03:31.478Z,9.70
2023-02-18T19:06:00.657Z,9.75
2023-02-18T19:08:29.241Z,9.68
2023-02-18T19:10:58.163Z,9.77
2023-02-18T19:13:28.968Z,9.76
2023-02-18T19:16:01.708Z,9.74
2023-02-18T19:18:30.014Z,9.79
2023-02-18T19:20:57.711Z,9.70
2023-02-18T19:23:26.767Z,9.71
2023-02-18T19:25:54.352Z,9.68
2023-02-18T19:28:21.919Z,9.67
2023-02-18T19:30:50.027Z,9.61
2023-02-18T19:33:17.855Z,9.62
2023-02-18T19:35:45.987Z,9.64
2023-02-18T19:38:14.884Z,9.57
2023-02-18T19:40:44.305Z,9.75
2023-02-18T19:43:13.064Z,9.66
2023-02-18T19:45:44.624Z,9.75
2023-02-18T19:48:13.066Z,9.68
2023-02-18T19:50:41.101Z,9.69
2023-02-18T19:53:09.041Z,9.62
2023-02-18T19:55:40.103Z,9.72
2023-02-18T19:58:09.174Z,9.64
2023-02-18T20:00:36.796Z,9.67
2023-02-18T20:03:04.460Z,9.78
2023-02-18T20:05:32.060Z,9.74
2023-02-18T20:07:59.759Z,9.64
2023-02-18T20:10:27.880Z,9.67
2023-02-18T20:12:55.552Z,9.75
2023-02-18T20:15:24.695Z,9.73
2023-02-18T20:17:52.416Z,9.69
2023-02-18T20:20:22.318Z,9.80
2023-02-18T20:22:49.920Z,9.74
2023-02-18T20:25:17.603Z,9.68
2023-02-18T20:27:59.814Z,9.61
2023-02-18T20:30:30.033Z,9.72
2023-02-18T20:32:57.716Z,9.67
2023-02-18T20:35:25.426Z,9.74
2023-02-18T20:37:53.097Z,9.57
2023-02-18T20:40:20.720Z,9.58
2023-02-18T20:42:48.379Z,9.56
2023-02-18T20:45:16.190Z,9.60
2023-02-18T20:47:45.212Z,9.67
2023-02-18T20:50:12.804Z,9.64
2023-02-18T20:52:40.600Z,9.43
2023-02-18T20:55:08.353Z,9.62
2023-02-18T20:57:36.016Z,9.62
2023-02-18T21:00:05.948Z,9.61
2023-02-18T21:02:33.613Z,9.57
2023-02-18T21:05:02.511Z,9.66
2023-02-18T21:07:30.119Z,9.50
2023-02-18T21:09:57.720Z,9.55
2023-02-18T21:12:25.533Z,9.59
2023-02-18T21:14:53.159Z,9.51
2023-02-18T21:17:22.057Z,9.56
2023-02-18T21:19:49.782Z,9.50
2023-02-18T21:22:18.941Z,9.43
2023-02-18T21:24:46.570Z,9.41
2023-02-18T21:27:14.223Z,9.48
2023-02-18T21:29:41.886Z,9.45
2023-02-18T21:32:09.569Z,9.54
2023-02-18T21:34:37.261Z,9.47
2023-02-18T21:37:04.911Z,9.49
2023-02-18T21:39:33.967Z,9.45
2023-02-18T21:42:04.049Z,9.42
2023-02-18T21:44:41.710Z,9.43
2023-02-18T21:47:10.170Z,9.37
2023-02-18T21:49:37.749Z,9.45
2023-02-18T21:52:09.278Z,9.33
2023-02-18T21:54:40.381Z,9.24
2023-02-18T21:57:11.057Z,9.17
2023-02-18T21:59:38.959Z,9.21
2023-02-18T22:02:08.304Z,9.25
2023-02-18T22:04:37.522Z,9.26
2023-02-18T22:07:05.343Z,9.30
2023-02-18T22:09:33.029Z,9.29
2023-02-18T22:12:02.159Z,9.14
2023-02-18T22:14:30.000Z,9.24
2023-02-18T22:16:57.762Z,9.20
2023-02-18T22:19:25.688Z,9.11
2023-02-18T22:21:53.455Z,9.18
2023-02-18T22:24:21.028Z,9.13
2023-02-18T22:26:48.994Z,9.21
2023-02-18T22:29:19.728Z,9.18
2023-02-18T22:31:48.012Z,9.14
2023-02-18T22:34:15.640Z,9.09
2023-02-18T22:36:43.516Z,9.21
2023-02-18T22:39:11.642Z,9.15
2023-02-18T22:41:39.432Z,9.17
2023-02-18T22:44:09.425Z,9.20
2023-02-18T22:46:38.644Z,9.13
2023-02-18T22:49:07.561Z,9.11
2023-02-18T22:51:37.814Z,9.04
2023-02-18T22:54:07.327Z,9.20
2023-02-18T22:56:34.953Z,9.12
2023-02-18T22:59:02.618Z,9.11
2023-02-18T23:01:32.857Z,9.12
2023-02-18T23:04:05.585Z,9.15
2023-02-18T23:06:33.397Z,9.06
2023-02-18T23:09:01.210Z,9.15
2023-02-18T23:11:28.933Z,9.13
2023-02-18T23:14:14.933Z,9.05
2023-02-18T23:17:00.182Z,9.10
2023-02-18T23:19:30.645Z,9.02
2023-02-18T23:21:58.886Z,8.94
2023-02-18T23:24:26.551Z,8.95
2023-02-18T23:26:54.183Z,9.07
2023-02-18T23:29:22.098Z,9.09
2023-02-18T23:31:49.800Z,9.00
2023-02-18T23:34:18.247Z,9.02
2023-02-18T23:36:47.888Z,8.98
2023-02-18T23:39:18.570Z,8.93
2023-02-18T23:41:46.544Z,9.08
2023-02-18T23:44:15.756Z,8.98
2023-02-18T23:46:44.761Z,9.01
2023-02-18T23:49:14.913Z,9.02
2023-02-18T23:51:42.714Z,8.98
2023-02-18T23:54:12.185Z,9.02
2023-02-18T23:56:40.092Z,9.01
2023-02-18T23:59:08.157Z,9.06
